AirNav   Air Wisconsin pilot careers
 
 814 users online  

7Y4 Bagley Municipal Airport
Bagley, Minnesota, USA

GOING TO BAGLEY?


FAA INFORMATION EFFECTIVE 09 NOVEMBER 2017

Location

FAA Identifier: 7Y4
Lat/Long: 47-31-26.5125N / 095-21-49.3650W
47-31.441875N / 095-21.822750W
47.5240313 / -95.3637125
(estimated)
Elevation: 1500 ft. / 457 m (estimated)
Variation: 05E (1985)
From city: 1 mile E of BAGLEY, MN
Time zone: UTC -6 (UTC -5 during Daylight Saving Time)
Zip code: 56621

Airport Operations

Airport use: Open to the public
Activation date: 09/1974
Control tower: no
ARTCC: MINNEAPOLIS CENTER
FSS: PRINCETON FLIGHT SERVICE STATION
NOTAMs facility: PNM (NOTAM-D service available)
Attendance: UNATNDD
Wind indicator: lighted
Segmented circle: no
Lights: MIRL 14/32 PRESET LOW INTST, TO INCR INTST & ACTVT REIL RY 14/32; PAPI RY 14/32; MIRL RY 14/32 - CTAF.
Beacon: white-green (lighted land airport)
Operates sunset to sunrise.

Airport Communications

CTAF: 122.9
WX AWOS-3 at FSE (17 nm W): 118.35 (218-435-6448)
WX AWOS-3 at BJI (17 nm E): 110.0 (218-755-2575)

Nearby radio navigation aids

VOR radial/distance  VOR name  Freq  Var
IDJr272/17.9LAKE BEMIDJI VOR/DME110.0001E
PKDr338/39.4PARK RAPIDS VOR/DME110.6004E

 
NDB name  Hdg/Dist  Freq  Var  ID
FOSSTON100/16.922403EFSE ..-. ... .

Airport Services

Parking: tiedowns
Airframe service: NONE
Powerplant service: NONE
Bottled oxygen: NONE
Bulk oxygen: NONE

Runway Information

Runway 14/32

Dimensions: 3800 x 75 ft. / 1158 x 23 m
RWY 14/32 PAVED AND EXTENDED ON SE END.
Surface: asphalt, in good condition
Runway edge lights: medium intensity
RUNWAY 14  RUNWAY 32
Latitude: 47-31.700783N47-31.182967N
Longitude: 095-22.081517W095-21.563983W
Elevation: 1497.0 ft.1502.6 ft.
Traffic pattern: leftleft
Markings: nonprecision, in good conditionnonprecision, in good condition
Visual slope indicator: 4-light PAPI on left4-light PAPI on left
Runway end identifier lights: yesyes
Obstructions: 19 ft. trees, 529 ft. from runway, 124 ft. right of centerline, 17:1 slope to clear
RY 14: TREES +17, 529 FT FM RY END, 124R, 17:1.
none

Airport Ownership and Management from official FAA records

Ownership: Publicly-owned
Owner: CITY OF BAGLEY
PO BOX 178
BAGLEY, MN 56621
Phone 218-694-2865
Manager: BILL MASTERSON
PO BOX 178, BOX 178
BAGLEY, MN 56621
Phone 218-694-6532

Airport Operational Statistics

Aircraft based on the field: 4
Single engine airplanes: 4
    
Aircraft operations: avg 46/week *
83% transient general aviation
17% local general aviation
* for 12-month period ending 30 April 2017

Instrument Procedures

There are no published instrument procedures at 7Y4.

Some nearby airports with instrument procedures:

KFSE - Fosston Municipal Airport (17 nm W)
KBJI - Bemidji Regional Airport (17 nm E)
3N8 - Mahnomen County Airport (28 nm SW)
Y49 - Walker Municipal Airport (36 nm SE)
KPKD - Park Rapids Municipal Airport-Konshok Field (39 nm S)
 
Loc | Ops | Rwys | IFR | FBO | Links
Com | Nav | Svcs | Stats | Notes


 
Area around 7Y4 (Bagley Municipal Airport)
 
Road maps at: MapQuest Bing Google
 
Aerial photo
No photo
 
Sectional chart

 
Airport distance calculator
Flying to Bagley Municipal Airport? Find the distance to fly.

From to 7Y4

Sunrise and sunset
Times for 18-Nov-2017
 Local
(UTC-6)
 Zulu
(UTC)
Morning civil twilight06:5812:58
Sunrise07:3213:32
Sunset16:4122:41
Evening civil twilight17:1523:15

Current date and time
Zulu (UTC)  19-Nov-2017 00:49:47
Local (UTC-6)  18-Nov-2017 18:49:47
 
METAR
KFSE 
17nm W 
190034Z AUTO 27006KT 10SM CLR M11/M14 A3001 RMK AO2
KBJI 
18nm E 
190033Z AUTO 28012KT 10SM CLR M10/M14 A2998 RMK AO2 T11051138
K3N8 
28nm SW 
190035Z AUTO 29010KT 10SM CLR M10/M13 A3002 RMK AO2 T10961131
TAF
KBJI 
18nm E 
182052Z 1821/1918 30013G17KT P6SM -SN BKN021 FM182300 31013KT P6SM SCT025 FM190200 29010KT P6SM SKC FM190700 VRB06KT P6SM SCT100
NOTAMs
Click for the latest NOTAMs
NOTAMs are issued by the DoD/FAA and will open in a separate window not controlled by AirNav.

 

 
 

Would you like to see your business listed on this page?

 If your business provides an interesting product or service to pilots, flight crews, aircraft, or users of the Bagley Municipal Airport, you should consider listing it here.  To start the listing process, click on the button below
 
Add a business
 

Other Pages about Bagley Municipal Airport

PDF page(s) from the Minnesota Airport Directory
 
Update a link
 
Copyright © AirNav, LLC. All rights reserved. Privacy Policy  Contact